Time;durP1;ratioP1;P1;durP2;ratioP2;P2;SDS_P1;SDS_P2;PMS_P1;PMS_P2;Temp;Humidity;BMP_temperature;BMP_pressure;BME280_temperature;BME280_humidity;BME280_pressure;Samples;Min_cycle;Max_cycle;Signal;HPM_P1;HPM_P2
2023/04/22 00:01:11;;;;;;;7.95;4.50;;;;;;;13.94;68.71;100270.09;5223433;28;20486;-73
2023/04/22 00:03:43;;;;;;;8.77;4.30;;;;;;;13.83;69.48;100267.19;5196218;28;20158;-72
2023/04/22 00:06:13;;;;;;;10.82;4.25;;;;;;;13.79;69.55;100268.28;5226026;28;20031;-70
2023/04/22 00:08:43;;;;;;;8.07;4.45;;;;;;;13.75;69.60;100272.84;5597105;23;20422;-71
2023/04/22 00:11:14;;;;;;;6.43;3.85;;;;;;;13.69;70.15;100267.06;6230981;23;20021;-72
2023/04/22 00:13:45;;;;;;;6.97;4.60;;;;;;;13.70;70.35;100258.25;6220795;23;20075;-72
2023/04/22 00:16:15;;;;;;;9.10;4.90;;;;;;;13.66;69.95;100260.22;6230772;23;20439;-71
2023/04/22 00:18:45;;;;;;;11.55;5.00;;;;;;;13.63;70.88;100255.13;6220638;23;20022;-72
2023/04/22 00:21:15;;;;;;;7.95;4.50;;;;;;;13.60;70.22;100257.06;6224572;23;20017;-72
2023/04/22 00:23:46;;;;;;;9.00;5.03;;;;;;;13.56;70.54;100259.00;6220735;23;20503;-72
2023/04/22 00:26:16;;;;;;;7.88;4.50;;;;;;;13.58;70.59;100249.25;6209462;23;20029;-72
2023/04/22 00:28:46;;;;;;;7.82;4.28;;;;;;;13.58;70.68;100253.66;6225153;23;20024;-72
2023/04/22 00:31:17;;;;;;;8.55;4.65;;;;;;;13.47;70.88;100245.50;6224262;23;20244;-72
2023/04/22 00:33:47;;;;;;;9.57;4.53;;;;;;;13.40;71.09;100241.50;6225404;23;20297;-72
2023/04/22 00:36:17;;;;;;;9.93;5.07;;;;;;;13.32;71.66;100243.66;6225968;23;20142;-73
2023/04/22 00:38:51;;;;;;;8.75;5.18;;;;;;;13.43;70.94;100242.19;6230664;23;20031;-70
2023/04/22 00:41:23;;;;;;;8.32;4.55;;;;;;;13.39;71.24;100238.03;6229291;23;20021;-73
2023/04/22 00:43:53;;;;;;;8.55;4.88;;;;;;;13.42;70.56;100229.97;6224021;23;20102;-72
2023/04/22 00:46:24;;;;;;;8.00;4.68;;;;;;;13.38;70.80;100235.50;6230019;23;20479;-72
2023/04/22 00:48:56;;;;;;;7.60;4.38;;;;;;;13.33;70.73;100234.88;6224195;23;20481;-72
2023/04/22 00:51:26;;;;;;;10.10;4.82;;;;;;;13.39;70.89;100229.31;6228532;23;20410;-72
2023/04/22 00:53:57;;;;;;;9.38;4.97;;;;;;;13.24;71.12;100223.06;6229017;23;20240;-72
2023/04/22 00:56:29;;;;;;;8.15;4.88;;;;;;;13.24;71.27;100222.25;6223204;23;20209;-72
2023/04/22 00:58:59;;;;;;;7.90;4.72;;;;;;;13.31;70.79;100223.59;6220364;23;20021;-72
2023/04/22 01:01:29;;;;;;;8.07;4.45;;;;;;;13.26;71.19;100207.25;6220041;23;20013;-72
2023/04/22 01:04:00;;;;;;;11.63;5.35;;;;;;;13.24;71.03;100222.25;6225307;23;20021;-71
2023/04/22 01:06:31;;;;;;;8.30;4.80;;;;;;;13.27;71.02;100219.44;6222444;23;20458;-72
2023/04/22 01:09:01;;;;;;;10.07;5.50;;;;;;;13.25;71.20;100213.44;6222219;23;20014;-72
2023/04/22 01:11:34;;;;;;;9.07;4.57;;;;;;;13.18;71.27;100222.53;6230375;23;20096;-72
2023/04/22 01:14:04;;;;;;;9.90;5.50;;;;;;;13.11;71.62;100218.53;6217438;23;20020;-72
2023/04/22 01:16:37;;;;;;;11.07;5.38;;;;;;;13.02;72.02;100221.63;6226100;23;20029;-72
2023/04/22 01:19:10;;;;;;;10.60;5.32;;;;;;;13.12;71.76;100215.84;6225680;23;20021;-72
2023/04/22 01:21:42;;;;;;;10.75;5.20;;;;;;;13.05;72.05;100224.13;6227733;23;20064;-70
2023/04/22 01:24:12;;;;;;;8.95;4.97;;;;;;;12.92;72.67;100223.00;6230447;23;20108;-73
2023/04/22 01:26:42;;;;;;;8.02;5.05;;;;;;;12.86;73.23;100217.22;6230540;23;20463;-72
2023/04/22 01:29:14;;;;;;;12.40;5.30;;;;;;;12.88;73.30;100218.84;6223895;23;20100;-72
2023/04/22 01:31:45;;;;;;;8.88;5.25;;;;;;;12.86;73.60;100214.59;6226677;23;20097;-72
2023/04/22 01:34:15;;;;;;;11.95;5.15;;;;;;;12.78;73.82;100217.59;6231431;23;20021;-71
2023/04/22 01:36:45;;;;;;;16.05;5.32;;;;;;;12.70;74.25;100219.78;6225680;23;20018;-72
2023/04/22 01:39:16;;;;;;;12.40;5.57;;;;;;;12.70;74.41;100222.38;6224678;23;20375;-70
2023/04/22 01:41:47;;;;;;;9.52;5.13;;;;;;;12.68;74.08;100215.50;6225179;23;20022;-72
2023/04/22 01:44:18;;;;;;;10.18;5.55;;;;;;;12.61;74.44;100212.34;6253775;23;20035;-72
2023/04/22 01:46:48;;;;;;;11.02;5.22;;;;;;;12.61;74.64;100211.50;6218307;23;20093;-72
2023/04/22 01:49:20;;;;;;;10.75;5.15;;;;;;;12.60;74.64;100220.31;6224568;23;20017;-72
2023/04/22 01:51:50;;;;;;;10.32;5.25;;;;;;;12.54;75.16;100215.34;6225443;23;20571;-71
2023/04/22 01:54:20;;;;;;;9.50;4.65;;;;;;;12.65;74.54;100205.19;6220049;23;20024;-73
2023/04/22 01:56:54;;;;;;;11.20;5.70;;;;;;;12.65;74.85;100216.50;6230931;23;20478;-72
2023/04/22 01:59:25;;;;;;;9.10;5.43;;;;;;;12.60;75.01;100221.13;6228639;23;20148;-72
2023/04/22 02:01:55;;;;;;;12.02;5.45;;;;;;;12.55;75.15;100217.91;6224337;23;20095;-72
2023/04/22 02:04:25;;;;;;;11.05;5.38;;;;;;;12.55;75.20;100217.91;6231568;23;20021;-72
2023/04/22 02:06:55;;;;;;;10.88;5.05;;;;;;;12.49;75.68;100202.44;6230205;23;20024;-72
2023/04/22 02:09:26;;;;;;;11.20;5.50;;;;;;;12.42;75.85;100206.31;6218469;23;20048;-72
2023/04/22 02:11:56;;;;;;;9.35;5.30;;;;;;;12.38;76.08;100210.00;6225515;23;20018;-72
2023/04/22 02:14:26;;;;;;;8.50;5.15;;;;;;;12.37;76.57;100208.31;6218936;23;20277;-72
2023/04/22 02:16:57;;;;;;;10.27;5.30;;;;;;;12.36;76.40;100211.00;6231433;23;20025;-72
2023/04/22 02:19:28;;;;;;;8.88;5.40;;;;;;;12.33;76.75;100206.75;6230961;23;20021;-72
2023/04/22 02:21:58;;;;;;;10.82;5.50;;;;;;;12.34;76.01;100198.00;6226107;23;20018;-72
2023/04/22 02:24:29;;;;;;;9.85;5.30;;;;;;;12.32;76.08;100207.66;6229551;23;20506;-71
2023/04/22 02:27:00;;;;;;;10.43;5.53;;;;;;;12.24;76.60;100201.09;6223526;23;20112;-72
2023/04/22 02:29:31;;;;;;;9.68;5.40;;;;;;;12.26;76.88;100200.13;6227475;23;20021;-72
2023/04/22 02:32:01;;;;;;;10.20;5.57;;;;;;;12.31;76.46;100203.34;6226923;23;20151;-72
2023/04/22 02:34:31;;;;;;;10.70;5.68;;;;;;;12.32;75.92;100202.44;6225957;23;20021;-72
2023/04/22 02:37:02;;;;;;;10.68;5.32;;;;;;;12.27;76.72;100207.06;6219192;23;20454;-72
2023/04/22 02:39:32;;;;;;;9.27;5.40;;;;;;;12.23;76.79;100205.50;6224560;23;20285;-72
2023/04/22 02:42:02;;;;;;;8.80;5.18;;;;;;;12.23;77.14;100200.28;6221291;23;20627;-71
2023/04/22 02:44:33;;;;;;;10.63;5.28;;;;;;;12.13;77.44;100206.84;6223750;23;20029;-72
2023/04/22 02:47:05;;;;;;;10.73;5.30;;;;;;;12.12;77.80;100201.72;6226351;23;20069;-72
2023/04/22 02:49:35;;;;;;;11.25;5.57;;;;;;;12.03;77.78;100203.00;6230117;23;20025;-72
2023/04/22 02:52:06;;;;;;;7.93;5.05;;;;;;;12.06;77.70;100196.75;6225317;23;20371;-72
2023/04/22 02:54:36;;;;;;;13.25;5.45;;;;;;;12.11;77.53;100185.13;6225947;23;21047;-71
2023/04/22 02:57:06;;;;;;;9.98;5.32;;;;;;;12.11;77.67;100179.06;6231859;23;20016;-72
2023/04/22 02:59:37;;;;;;;10.55;5.22;;;;;;;12.07;77.75;100191.44;6230717;23;20021;-72
2023/04/22 03:02:08;;;;;;;9.00;5.32;;;;;;;12.13;77.56;100183.28;6225596;23;20538;-72
2023/04/22 03:04:39;;;;;;;9.38;5.10;;;;;;;12.10;77.23;100178.19;6232217;23;20036;-72
2023/04/22 03:07:10;;;;;;;9.40;5.20;;;;;;;12.16;76.95;100175.28;6231455;23;20021;-70
2023/04/22 03:09:40;;;;;;;9.50;5.18;;;;;;;12.16;77.30;100166.59;6226919;23;20017;-70
2023/04/22 03:12:10;;;;;;;9.48;4.80;;;;;;;12.11;77.03;100169.41;6228857;23;20024;-71
2023/04/22 03:14:40;;;;;;;7.47;4.43;;;;;;;12.07;77.40;100165.25;6232805;23;20027;-70
2023/04/22 03:17:11;;;;;;;10.05;4.95;;;;;;;12.03;77.69;100168.09;6225658;23;20484;-70
2023/04/22 03:19:41;;;;;;;10.73;5.90;;;;;;;12.04;77.44;100165.41;6227546;23;20024;-70
2023/04/22 03:22:11;;;;;;;11.05;4.82;;;;;;;12.06;77.87;100166.19;6226156;23;20475;-70
2023/04/22 03:24:42;;;;;;;9.23;5.13;;;;;;;12.06;77.56;100160.94;6224037;23;20097;-70
2023/04/22 03:27:12;;;;;;;8.85;4.55;;;;;;;12.06;77.35;100154.84;6232209;23;20453;-70
2023/04/22 03:29:43;;;;;;;10.38;4.82;;;;;;;12.14;77.34;100155.34;6226624;23;20025;-72
2023/04/22 03:32:13;;;;;;;15.55;5.20;;;;;;;12.12;77.42;100149.31;6231502;23;20020;-72
2023/04/22 03:34:43;;;;;;;10.25;4.32;;;;;;;12.07;77.73;100164.38;6227786;23;20031;-72
2023/04/22 03:37:13;;;;;;;9.65;4.78;;;;;;;11.99;78.01;100159.50;6230778;23;20087;-71
2023/04/22 03:39:44;;;;;;;12.50;4.78;;;;;;;11.95;78.33;100151.91;6231752;23;20025;-72
2023/04/22 03:42:14;;;;;;;9.80;4.88;;;;;;;11.88;78.81;100166.19;6225411;23;20017;-72
2023/04/22 03:44:44;;;;;;;9.27;4.60;;;;;;;11.88;78.62;100153.97;6219756;23;20376;-72
2023/04/22 03:47:15;;;;;;;10.05;5.03;;;;;;;11.91;78.12;100161.66;6232513;23;20052;-72
2023/04/22 03:49:45;;;;;;;8.30;4.95;;;;;;;11.91;78.34;100160.81;6227855;23;20107;-72
2023/04/22 03:52:15;;;;;;;12.95;4.85;;;;;;;11.94;77.90;100151.03;6220762;23;20013;-72
2023/04/22 03:54:46;;;;;;;9.45;4.65;;;;;;;12.01;77.73;100151.59;6233281;23;20023;-72
2023/04/22 03:57:16;;;;;;;15.93;4.93;;;;;;;11.97;77.93;100148.28;6230171;23;20025;-72
2023/04/22 03:59:46;;;;;;;10.82;4.55;;;;;;;11.92;78.31;100145.03;6220900;23;20021;-72
2023/04/22 04:02:17;;;;;;;8.88;4.38;;;;;;;11.91;78.46;100139.84;6219175;23;20099;-72
2023/04/22 04:04:47;;;;;;;11.32;4.88;;;;;;;11.91;78.45;100145.09;6215559;23;20037;-72
2023/04/22 04:07:17;;;;;;;10.90;4.78;;;;;;;11.88;78.47;100148.72;6218935;23;20025;-72
2023/04/22 04:09:48;;;;;;;7.10;4.40;;;;;;;11.76;79.16;100157.16;6217029;23;20026;-70
2023/04/22 04:12:18;;;;;;;8.90;4.40;;;;;;;11.80;79.83;100156.06;6227502;23;20021;-73
2023/04/22 04:14:48;;;;;;;8.52;4.25;;;;;;;11.69;80.92;100166.22;6220874;23;20064;-71
2023/04/22 04:17:19;;;;;;;9.98;4.97;;;;;;;11.55;81.72;100167.72;6226125;23;20024;-70
2023/04/22 04:19:50;;;;;;;8.50;5.35;;;;;;;11.54;81.49;100166.03;6222100;23;20024;-70
2023/04/22 04:22:20;;;;;;;7.72;4.38;;;;;;;11.45;82.12;100172.53;6221534;23;20043;-72
2023/04/22 04:24:51;;;;;;;9.68;4.32;;;;;;;11.44;82.70;100176.06;6224204;23;20021;-72
2023/04/22 04:27:22;;;;;;;9.30;4.80;;;;;;;11.38;83.81;100181.59;6220330;23;20092;-72
2023/04/22 04:29:54;;;;;;;11.15;4.75;;;;;;;11.17;84.02;100179.06;6225919;23;20025;-71
2023/04/22 04:32:25;;;;;;;13.05;4.88;;;;;;;11.01;85.43;100190.28;6226353;23;20227;-72
2023/04/22 04:34:56;;;;;;;13.32;5.68;;;;;;;11.06;85.87;100181.31;6220459;23;20068;-72
2023/04/22 04:37:26;;;;;;;8.55;4.90;;;;;;;11.00;85.89;100184.19;6229754;23;20025;-72
2023/04/22 04:40:00;;;;;;;10.82;5.25;;;;;;;10.98;86.05;100183.41;6219522;23;20014;-72
2023/04/22 04:42:32;;;;;;;9.25;5.15;;;;;;;10.95;86.50;100180.94;6229399;23;20040;-73
2023/04/22 04:45:02;;;;;;;11.13;5.78;;;;;;;10.93;88.21;100182.78;6220774;23;20020;-72
2023/04/22 04:47:33;;;;;;;13.48;5.88;;;;;;;10.82;88.24;100174.53;6222312;23;20434;-72
2023/04/22 04:50:04;;;;;;;9.88;5.47;;;;;;;10.81;89.30;100179.81;6225740;23;20020;-72
2023/04/22 04:52:34;;;;;;;9.63;5.38;;;;;;;10.96;89.02;100184.38;6218285;23;20055;-72
2023/04/22 04:55:04;;;;;;;11.70;5.20;;;;;;;10.92;88.59;100186.31;6217230;23;20022;-72
2023/04/22 04:57:35;;;;;;;9.75;5.60;;;;;;;11.01;88.16;100179.84;6219928;23;20364;-72
2023/04/22 05:00:07;;;;;;;8.32;5.25;;;;;;;11.20;87.89;100177.19;6220340;23;20626;-72
2023/04/22 05:02:37;;;;;;;12.02;5.90;;;;;;;11.25;88.31;100177.81;6216645;23;20491;-72
2023/04/22 05:05:08;;;;;;;10.40;6.47;;;;;;;11.33;87.50;100183.56;6221465;23;20383;-72
2023/04/22 05:07:38;;;;;;;10.18;6.18;;;;;;;11.92;86.20;100168.59;6221047;23;20478;-73
2023/04/22 05:10:09;;;;;;;9.13;5.20;;;;;;;12.66;81.91;100163.13;6217271;23;20026;-71
2023/04/22 05:12:40;;;;;;;9.95;5.07;;;;;;;13.95;77.18;100157.00;6219952;23;20017;-72
2023/04/22 05:15:10;;;;;;;8.25;5.18;;;;;;;15.03;72.69;100155.91;6212878;23;20433;-71
2023/04/22 05:17:41;;;;;;;8.63;4.80;;;;;;;15.67;70.53;100157.16;6215133;23;20014;-70
2023/04/22 05:20:11;;;;;;;9.57;5.10;;;;;;;15.95;70.60;100154.47;6225031;23;20058;-71
2023/04/22 05:22:43;;;;;;;8.13;4.82;;;;;;;16.44;68.54;100155.66;6217087;23;20017;-71
2023/04/22 05:25:15;;;;;;;7.95;4.18;;;;;;;17.49;65.51;100151.81;6221092;23;20075;-73
2023/04/22 05:27:45;;;;;;;7.53;4.30;;;;;;;18.12;63.30;100141.06;6220971;23;20084;-73
2023/04/22 05:30:15;;;;;;;11.67;4.50;;;;;;;18.30;61.21;100135.31;6219848;23;20016;-72
2023/04/22 05:32:46;;;;;;;7.45;4.10;;;;;;;19.02;60.69;100140.34;6225577;23;20252;-73
2023/04/22 05:35:16;;;;;;;6.35;3.90;;;;;;;19.78;59.96;100136.06;6228144;23;20072;-72
2023/04/22 05:37:46;;;;;;;6.82;4.57;;;;;;;19.87;59.70;100136.16;6213550;23;20024;-73
2023/04/22 05:40:17;;;;;;;6.70;3.47;;;;;;;20.03;58.90;100130.50;6217401;23;20449;-72
2023/04/22 05:42:47;;;;;;;5.32;3.40;;;;;;;19.77;58.06;100137.88;6225440;23;20017;-71
2023/04/22 05:45:18;;;;;;;7.65;3.60;;;;;;;20.24;58.06;100126.94;6226039;23;20025;-72
2023/04/22 05:47:48;;;;;;;9.68;3.70;;;;;;;20.09;56.83;100137.97;6219490;23;20021;-71
2023/04/22 05:50:18;;;;;;;7.03;3.40;;;;;;;18.19;60.18;100137.88;6215378;23;20490;-73
2023/04/22 05:52:49;;;;;;;6.70;3.63;;;;;;;16.87;65.08;100144.75;6214280;23;20044;-72
2023/04/22 05:55:19;;;;;;;9.55;3.75;;;;;;;15.73;68.35;100138.31;6214583;23;20028;-72
2023/04/22 05:57:50;;;;;;;8.30;3.70;;;;;;;15.14;71.22;100146.44;6214600;23;20226;-72
2023/04/22 06:00:20;;;;;;;12.70;3.65;;;;;;;14.64;72.35;100152.19;6231814;23;20079;-72
2023/04/22 06:02:51;;;;;;;8.60;3.33;;;;;;;14.62;73.88;100151.41;6215862;23;20092;-71
2023/04/22 06:05:22;;;;;;;7.55;3.72;;;;;;;14.62;75.08;100154.88;6214444;23;20045;-72
2023/04/22 06:10:25;;;;;;;7.55;3.53;;;;;;;14.68;74.12;100151.91;5250684;22;20048;-71
2023/04/22 06:12:55;;;;;;;7.47;3.55;;;;;;;14.64;73.95;100146.91;5203342;28;20021;-71
2023/04/22 06:15:25;;;;;;;6.88;3.10;;;;;;;14.57;73.90;100156.94;5198377;28;20052;-71
2023/04/22 06:17:56;;;;;;;6.13;3.20;;;;;;;14.80;74.25;100145.06;5196175;28;20382;-71
2023/04/22 06:20:26;;;;;;;10.75;3.40;;;;;;;14.83;74.69;100149.22;5198625;28;20590;-70
2023/04/22 06:22:56;;;;;;;11.98;3.53;;;;;;;14.92;75.48;100146.03;5196156;28;20025;-71
2023/04/22 06:25:26;;;;;;;7.20;3.63;;;;;;;15.11;75.26;100148.38;5194132;28;20033;-71
2023/04/22 06:27:58;;;;;;;7.40;3.72;;;;;;;15.75;73.16;100135.59;5192208;28;20067;-71
2023/04/22 06:30:28;;;;;;;6.15;3.60;;;;;;;17.55;68.75;100132.91;5196773;28;20096;-71
2023/04/22 06:32:58;;;;;;;7.95;3.28;;;;;;;18.86;64.60;100134.53;5200154;28;20045;-71
2023/04/22 06:35:30;;;;;;;7.63;3.45;;;;;;;19.55;61.45;100129.94;5179899;28;20034;-71
2023/04/22 06:38:00;;;;;;;6.30;3.50;;;;;;;20.24;60.89;100129.59;5197243;28;20018;-71
2023/04/22 06:40:30;;;;;;;6.25;3.63;;;;;;;21.19;58.24;100120.53;5191626;28;20414;-71
2023/04/22 06:43:01;;;;;;;6.20;3.50;;;;;;;21.32;57.65;100128.28;5176926;28;20030;-71
2023/04/22 06:45:31;;;;;;;5.72;3.42;;;;;;;21.99;57.06;100122.25;5183615;28;20276;-72
2023/04/22 06:48:01;;;;;;;6.18;3.08;;;;;;;21.70;55.63;100126.63;5199790;28;20451;-72
2023/04/22 06:50:31;;;;;;;6.85;3.45;;;;;;;22.16;55.54;100124.22;5203932;28;20057;-72
2023/04/22 06:53:02;;;;;;;7.10;3.23;;;;;;;22.18;55.90;100118.75;5201420;28;20024;-72
2023/04/22 06:55:32;;;;;;;7.10;3.08;;;;;;;21.74;55.89;100121.91;5199290;28;20371;-72
2023/04/22 06:58:02;;;;;;;5.97;3.00;;;;;;;22.43;55.66;100115.59;5198427;28;20052;-72
2023/04/22 07:00:33;;;;;;;5.68;2.88;;;;;;;22.63;54.25;100111.94;5206494;28;20332;-72
2023/04/22 07:03:03;;;;;;;5.57;2.92;;;;;;;22.80;53.68;100110.22;5182819;28;20021;-71
2023/04/22 07:05:34;;;;;;;7.00;2.72;;;;;;;22.30;54.73;100115.00;5202076;28;20069;-72
2023/04/22 07:08:04;;;;;;;6.38;3.20;;;;;;;22.61;53.21;100112.06;5199297;28;20022;-71
2023/04/22 07:10:34;;;;;;;8.98;2.90;;;;;;;22.76;53.46;100113.31;5206426;28;20083;-72
2023/04/22 07:13:04;;;;;;;5.40;3.20;;;;;;;23.23;53.39;100107.88;5187158;28;20028;-72
2023/04/22 07:15:35;;;;;;;5.72;2.80;;;;;;;23.67;52.73;100095.66;5205262;28;20366;-72
2023/04/22 07:18:05;;;;;;;5.55;3.28;;;;;;;23.89;52.74;100104.09;5199268;28;20326;-72
2023/04/22 07:20:35;;;;;;;4.15;2.38;;;;;;;24.61;50.07;100091.50;5200687;28;20064;-72
2023/04/22 07:23:06;;;;;;;6.65;2.75;;;;;;;24.69;50.69;100101.41;5201470;28;20361;-72
2023/04/22 07:25:36;;;;;;;4.13;2.50;;;;;;;23.46;51.38;100105.69;5193127;28;20025;-72
2023/04/22 07:28:06;;;;;;;4.95;2.75;;;;;;;23.77;51.88;100102.59;5201731;28;20725;-72
2023/04/22 07:30:37;;;;;;;6.37;2.60;;;;;;;23.91;51.83;100098.63;5200648;28;20044;-72
2023/04/22 07:33:07;;;;;;;10.82;3.00;;;;;;;24.21;51.74;100101.78;5201574;28;20330;-72
2023/04/22 07:35:37;;;;;;;5.50;2.60;;;;;;;24.48;51.02;100103.50;5202141;28;20502;-72
2023/04/22 07:38:08;;;;;;;6.28;2.78;;;;;;;24.46;51.37;100092.16;5182255;28;20117;-72
2023/04/22 07:40:38;;;;;;;5.22;3.03;;;;;;;24.33;50.92;100097.88;5200775;28;20040;-72
2023/04/22 07:43:08;;;;;;;6.07;2.30;;;;;;;24.64;50.30;100091.19;5200693;28;20067;-72
2023/04/22 07:45:38;;;;;;;5.00;2.43;;;;;;;25.75;50.01;100082.97;5201833;28;20280;-73
2023/04/22 07:48:09;;;;;;;4.53;2.47;;;;;;;26.45;49.44;100081.63;5200675;28;20687;-73
2023/04/22 07:50:39;;;;;;;6.22;2.40;;;;;;;26.63;47.76;100082.31;5200421;28;20029;-72
2023/04/22 07:53:10;;;;;;;8.10;2.70;;;;;;;26.56;49.91;100084.00;5202392;28;20488;-73
2023/04/22 07:55:40;;;;;;;5.63;2.40;;;;;;;26.26;49.07;100087.31;5202464;28;20431;-72
2023/04/22 07:58:10;;;;;;;8.98;2.50;;;;;;;25.81;49.68;100100.25;5184551;28;20053;-70
2023/04/22 08:00:44;;;;;;;5.90;2.57;;;;;;;25.89;49.27;100092.25;5203690;28;20027;-73
2023/04/22 08:03:14;;;;;;;7.60;2.90;;;;;;;26.58;48.32;100090.91;5205769;28;20319;-73
2023/04/22 08:05:45;;;;;;;5.17;2.40;;;;;;;26.36;49.11;100094.19;5186826;28;20126;-71
2023/04/22 08:08:15;;;;;;;4.15;2.50;;;;;;;26.53;49.33;100089.72;5204150;28;20772;-72
2023/04/22 08:10:45;;;;;;;4.60;2.33;;;;;;;26.16;50.73;100092.00;5200386;28;20037;-72
2023/04/22 08:13:16;;;;;;;4.40;2.70;;;;;;;26.09;48.41;100086.47;5204508;28;20017;-72
2023/04/22 08:15:46;;;;;;;6.93;2.65;;;;;;;26.29;50.86;100081.59;5202689;28;20761;-72
2023/04/22 08:18:16;;;;;;;4.90;2.80;;;;;;;25.55;51.21;100086.06;5205881;28;20032;-73
2023/04/22 08:20:47;;;;;;;6.07;2.67;;;;;;;26.47;50.21;100084.97;5197756;28;20414;-73
2023/04/22 08:23:17;;;;;;;12.05;2.30;;;;;;;26.41;50.37;100083.81;5206977;28;20279;-72
2023/04/22 08:25:47;;;;;;;7.33;3.10;;;;;;;25.97;51.17;100082.41;5212308;28;20025;-73
2023/04/22 08:28:18;;;;;;;4.65;2.50;;;;;;;25.89;50.86;100073.50;5209575;28;20279;-73
2023/04/22 08:30:48;;;;;;;4.40;2.63;;;;;;;26.24;51.18;100078.59;5207682;28;20025;-71
2023/04/22 08:33:19;;;;;;;4.70;2.60;;;;;;;26.83;50.72;100071.09;5199854;28;20568;-73
2023/04/22 08:35:49;;;;;;;5.43;2.83;;;;;;;25.96;51.50;100082.56;5206949;28;20025;-72
2023/04/22 08:38:19;;;;;;;5.10;2.40;;;;;;;26.31;50.91;100074.28;5198931;28;20031;-73
2023/04/22 08:40:50;;;;;;;10.60;2.90;;;;;;;26.51;50.42;100076.47;5186940;28;20116;-72
2023/04/22 08:43:21;;;;;;;5.53;2.67;;;;;;;25.65;51.75;100073.41;5202576;28;20021;-73
2023/04/22 08:45:52;;;;;;;5.95;2.78;;;;;;;25.32;51.53;100074.28;5203376;28;20059;-73
2023/04/22 08:48:22;;;;;;;5.45;2.80;;;;;;;24.31;54.21;100070.50;5202542;28;20532;-73
2023/04/22 08:50:53;;;;;;;6.57;2.55;;;;;;;25.79;51.38;100064.72;5206107;28;20087;-71
2023/04/22 08:53:23;;;;;;;5.78;3.00;;;;;;;25.44;51.37;100071.16;5212877;28;20104;-74
2023/04/22 08:55:55;;;;;;;4.65;2.95;;;;;;;24.80;52.61;100062.72;5208435;28;20262;-72
2023/04/22 08:58:27;;;;;;;6.07;2.75;;;;;;;25.81;52.23;100062.75;5209435;28;20104;-72
2023/04/22 09:00:59;;;;;;;6.50;3.08;;;;;;;24.98;53.38;100060.81;5205717;28;20029;-73
2023/04/22 09:03:29;;;;;;;4.28;2.60;;;;;;;25.89;52.22;100058.28;5207984;28;20045;-71
2023/04/22 09:06:04;;;;;;;5.45;2.75;;;;;;;26.64;51.53;100051.81;5193740;28;20486;-72
2023/04/22 09:08:34;;;;;;;4.93;3.25;;;;;;;26.36;51.04;100056.66;5207557;28;20131;-69
2023/04/22 09:11:05;;;;;;;5.80;2.90;;;;;;;27.17;51.69;100050.25;5185839;28;20041;-70
2023/04/22 09:13:36;;;;;;;5.82;2.88;;;;;;;26.57;51.24;100049.00;5205885;28;20055;-70
2023/04/22 09:16:06;;;;;;;3.55;2.47;;;;;;;26.75;53.39;100046.97;5202414;28;20059;-70
2023/04/22 09:18:46;;;;;;;7.38;3.03;;;;;;;24.67;54.86;100061.47;5198789;28;20037;-69
2023/04/22 09:21:16;;;;;;;7.38;3.35;;;;;;;24.91;57.61;100050.91;5209082;28;20425;-70
2023/04/22 09:23:51;;;;;;;5.72;3.35;;;;;;;23.99;57.54;100064.84;5207647;28;20033;-70
2023/04/22 09:26:23;;;;;;;7.70;3.35;;;;;;;24.11;57.07;100063.63;5185282;28;20021;-70
2023/04/22 09:28:57;;;;;;;7.07;2.80;;;;;;;24.04;57.88;100054.53;5185755;28;20068;-70
2023/04/22 09:31:27;;;;;;;11.15;3.60;;;;;;;23.58;59.10;100054.69;5191579;28;20033;-70
2023/04/22 09:33:59;;;;;;;7.23;3.20;;;;;;;22.35;60.19;100062.13;5205091;28;20041;-70
2023/04/22 09:36:36;;;;;;;7.80;3.22;;;;;;;22.56;60.69;100057.53;5189158;28;20423;-70
2023/04/22 09:39:07;;;;;;;5.47;3.10;;;;;;;21.79;60.80;100053.16;5206404;28;20037;-71
2023/04/22 09:41:39;;;;;;;8.57;3.20;;;;;;;22.10;60.18;100050.22;5199244;28;20491;-71
2023/04/22 09:44:14;;;;;;;6.63;3.10;;;;;;;22.57;59.83;100049.38;5198498;28;20080;-72
2023/04/22 09:46:48;;;;;;;9.45;3.03;;;;;;;23.03;61.53;100044.91;5201209;28;20029;-72
2023/04/22 09:49:19;;;;;;;7.50;3.13;;;;;;;23.09;61.10;100039.03;5201078;28;20028;-73
2023/04/22 09:51:55;;;;;;;5.57;3.20;;;;;;;22.82;61.67;100044.28;5192331;28;20083;-72
2023/04/22 09:54:25;;;;;;;7.53;3.10;;;;;;;22.55;61.48;100050.50;5186441;28;20032;-73
2023/04/22 09:56:55;;;;;;;8.07;3.20;;;;;;;22.86;61.97;100035.00;5182072;28;20029;-72
2023/04/22 09:59:28;;;;;;;7.57;3.60;;;;;;;22.97;61.95;100029.50;5205560;28;20044;-71
2023/04/22 10:01:59;;;;;;;6.72;3.00;;;;;;;22.08;62.51;100035.38;5204238;28;20629;-72
2023/04/22 10:04:30;;;;;;;6.38;3.10;;;;;;;22.49;63.86;100035.09;5205127;28;20131;-72
2023/04/22 10:07:01;;;;;;;7.55;3.30;;;;;;;21.89;63.83;100030.88;5204006;28;20100;-72
2023/04/22 10:09:33;;;;;;;6.78;3.28;;;;;;;22.43;62.01;100035.69;5181174;28;20244;-72
2023/04/22 10:12:04;;;;;;;5.88;2.80;;;;;;;22.57;62.54;100020.09;5200598;28;20116;-72
2023/04/22 10:14:34;;;;;;;7.60;3.28;;;;;;;22.13;64.13;100017.16;5180398;28;20049;-72
2023/04/22 10:17:05;;;;;;;6.35;2.80;;;;;;;22.17;66.82;100002.59;5205318;28;20025;-72
2023/04/22 10:19:38;;;;;;;6.10;3.30;;;;;;;22.49;64.43;100000.47;5206067;28;20067;-72
2023/04/22 10:22:10;;;;;;;7.20;3.03;;;;;;;22.14;63.63;100002.88;5210510;28;20032;-72
2023/04/22 10:24:41;;;;;;;6.20;3.38;;;;;;;22.13;64.56;99998.53;5188576;28;20036;-72
2023/04/22 10:27:11;;;;;;;8.43;3.45;;;;;;;22.34;64.16;99989.41;5206472;28;20021;-71
2023/04/22 10:29:42;;;;;;;6.03;3.22;;;;;;;22.00;65.62;99996.16;5185700;28;20418;-71
2023/04/22 10:32:32;;;;;;;6.38;3.40;;;;;;;22.35;65.21;99980.44;5208402;28;20025;-73
2023/04/22 10:35:13;;;;;;;5.82;2.90;;;;;;;22.11;65.49;99985.34;5200658;28;20093;-72
2023/04/22 10:37:45;;;;;;;7.38;3.50;;;;;;;22.16;66.38;99971.63;5182807;28;20021;-71
2023/04/22 10:40:17;;;;;;;7.28;3.80;;;;;;;22.25;65.66;99970.78;5180209;28;20071;-73
2023/04/22 10:42:54;;;;;;;6.95;2.85;;;;;;;22.49;66.15;99968.50;5180058;28;20802;-72
2023/04/22 10:45:25;;;;;;;5.78;3.15;;;;;;;22.32;63.92;99963.88;5178066;28;20033;-72
2023/04/22 10:48:01;;;;;;;8.05;2.88;;;;;;;22.34;66.05;99967.25;5177107;28;20056;-72
2023/04/22 10:50:32;;;;;;;5.25;2.88;;;;;;;22.08;64.85;99971.50;5180393;28;20046;-71
2023/04/22 10:53:35;;;;;;;4.47;2.60;;;;;;;22.12;66.71;99970.22;5203188;28;20683;-72
2023/04/22 10:56:19;;;;;;;6.88;3.00;;;;;;;21.95;66.35;99960.28;5198344;28;20057;-72
2023/04/22 10:58:49;;;;;;;5.82;3.08;;;;;;;21.71;66.59;99970.53;5194214;28;20040;-73
2023/04/22 11:01:20;;;;;;;6.57;3.03;;;;;;;21.98;67.25;99952.88;5207306;28;20033;-71
2023/04/22 11:03:50;;;;;;;8.20;3.22;;;;;;;21.99;66.54;99951.91;5201788;28;20021;-72
2023/04/22 11:06:21;;;;;;;7.05;2.70;;;;;;;22.01;66.41;99949.94;5206799;28;20495;-73
2023/04/22 11:09:08;;;;;;;5.22;2.95;;;;;;;22.12;67.11;99943.59;5180330;28;20025;-72
2023/04/22 11:11:38;;;;;;;6.93;2.70;;;;;;;22.16;64.70;99942.34;5196845;28;20041;-72
2023/04/22 11:14:09;;;;;;;4.47;2.15;;;;;;;22.46;64.42;99948.31;5204574;28;20041;-72
2023/04/22 11:16:45;;;;;;;8.25;2.40;;;;;;;22.33;63.56;99933.59;5188912;28;20037;-71
2023/04/22 11:19:16;;;;;;;4.65;2.20;;;;;;;22.50;63.44;99951.53;5204698;28;20024;-72
2023/04/22 11:21:47;;;;;;;4.15;2.50;;;;;;;22.54;64.97;99940.47;5188790;28;20037;-73
2023/04/22 11:24:19;;;;;;;6.10;2.67;;;;;;;22.26;64.35;99937.84;5204291;28;20100;-73
2023/04/22 11:26:49;;;;;;;4.68;2.55;;;;;;;22.56;65.44;99930.50;5194703;28;20624;-73
2023/04/22 11:29:20;;;;;;;6.03;2.60;;;;;;;22.27;64.46;99921.69;5174494;28;20309;-73
2023/04/22 11:31:50;;;;;;;5.47;1.90;;;;;;;22.48;64.59;99921.53;5207751;28;20061;-72
2023/04/22 11:34:20;;;;;;;6.50;2.35;;;;;;;22.51;63.04;99914.13;5191212;28;20458;-73
2023/04/22 11:36:51;;;;;;;5.65;2.33;;;;;;;22.46;64.25;99928.84;5205642;28;20045;-72
2023/04/22 11:39:21;;;;;;;4.55;2.40;;;;;;;22.76;64.99;99922.28;5211256;28;20298;-73
2023/04/22 11:41:52;;;;;;;3.45;2.40;;;;;;;22.69;63.73;99921.19;5200279;28;20041;-72
2023/04/22 11:44:22;;;;;;;7.23;2.40;;;;;;;22.73;65.47;99909.25;5208928;28;20025;-73